PWSweather.com
Personal Weather Stations
Station Observations
KPASPRIN10
East Vincent, East Vincent, PA 19475

East VincentEast Vincent, PA 19475

Lat: 40.170948, Lon: -75.629681

Elevation: 404

Station Type: Davis VP2

http://www.evweather.com

Latest ConditionsUpdated 7:10:02 PM EDT Tuesday, Mar 26, 2019
Currently Today's Max Today's Min Today's Average
Temperature 42.7°F5.9°C 47.7°F8.7°C 29.5°F-1.4°C 38.7°F3.7°C
Dew Point 10.1°F-12.2°C 36.2°F2.3°C 8.9°F-12.8°C 16.3°F-8.7°C
Winds 4.6 mph NNW7.4 kmh NNW 10.4 mph -16.7 kmh - - 6.2 mph 10.0 kmh
Wind Gusts 8.1 mph13.0 kmh 17.3 mph27.8 kmh - -
Humidity 26% 94% 23% 42%
Pressure 30.29 in1025.7 mb 30.30 in1026.1 mb 30.09 in1019.0 mb -
Hour Temp Dew Point Humidity Winds Wind Gusts Pressure Precip Precip Rate Daily Precip Total
07:10 PM 42.7°F5.9°C 10.1°F-12.2°C 26% 4.6 mph NNW7.4 kmh NNW 8.1 mph13.0 kmh 30.29 in1025.7 mb - 0.00 in0.0 mm 0.00 in0.0 mm
07:00 PM 43.4°F6.3°C 12.5°F-10.8°C 28% 2.3 mph NNE3.7 kmh NNE 3.5 mph5.6 kmh 30.29 in1025.7 mb - 0.00 in0.0 mm 0.00 in0.0 mm
06:50 PM 44.3°F6.8°C 9.7°F-12.4°C 24% 3.5 mph NNW5.6 kmh NNW 10.4 mph16.7 kmh 30.29 in1025.7 mb - 0.00 in0.0 mm 0.00 in0.0 mm
06:40 PM 45.0°F7.2°C 10.3°F-12.1°C 24% 8.1 mph N13.0 kmh N 9.2 mph14.8 kmh 30.28 in1025.4 mb - 0.00 in0.0 mm 0.00 in0.0 mm
06:30 PM 45.2°F7.3°C 12.3°F-10.9°C 26% 6.9 mph NNE11.1 kmh NNE 9.2 mph14.8 kmh 30.28 in1025.4 mb - 0.00 in0.0 mm 0.00 in0.0 mm
06:20 PM 45.9°F7.7°C 10.1°F-12.2°C 23% 9.2 mph NE14.8 kmh NE 11.5 mph18.5 kmh 30.28 in1025.4 mb - 0.00 in0.0 mm 0.00 in0.0 mm
06:10 PM 46.3°F7.9°C 11.4°F-11.4°C 24% 5.8 mph NE9.3 kmh NE 8.1 mph13.0 kmh 30.27 in1025.1 mb - 0.00 in0.0 mm 0.00 in0.0 mm
06:00 PM 46.5°F8.1°C 10.6°F-11.9°C 23% 5.8 mph NNE9.3 kmh NNE 9.2 mph14.8 kmh 30.27 in1025.1 mb - 0.00 in0.0 mm 0.00 in0.0 mm
05:50 PM 46.3°F7.9°C 10.5°F-11.9°C 23% 5.8 mph N9.3 kmh N 5.8 mph9.3 kmh 30.27 in1025.1 mb - 0.00 in0.0 mm 0.00 in0.0 mm
05:40 PM 46.5°F8.1°C 12.5°F-10.8°C 25% 3.5 mph NNE5.6 kmh NNE 5.8 mph9.3 kmh 30.27 in1025.1 mb - 0.00 in0.0 mm 0.00 in0.0 mm
05:30 PM 46.9°F8.3°C 12.9°F-10.6°C 25% 6.9 mph N11.1 kmh N 10.4 mph16.7 kmh 30.26 in1024.7 mb - 0.00 in0.0 mm 0.00 in0.0 mm
05:20 PM 46.9°F8.3°C 11.9°F-11.2°C 24% 8.1 mph N13.0 kmh N 11.5 mph18.5 kmh 30.26 in1024.7 mb - 0.00 in0.0 mm 0.00 in0.0 mm
05:10 PM 46.9°F8.3°C 12.9°F-10.6°C 25% 5.8 mph NE9.3 kmh NE 8.1 mph13.0 kmh 30.26 in1024.7 mb - 0.00 in0.0 mm 0.00 in0.0 mm
05:00 PM 47.7°F8.7°C 13.5°F-10.3°C 25% 6.9 mph N11.1 kmh N 13.8 mph22.2 kmh 30.26 in1024.7 mb - 0.00 in0.0 mm 0.00 in0.0 mm
04:50 PM 47.1°F8.4°C 13.0°F-10.6°C 25% 6.9 mph N11.1 kmh N 9.2 mph14.8 kmh 30.26 in1024.7 mb - 0.00 in0.0 mm 0.00 in0.0 mm
04:40 PM 47.3°F8.5°C 13.2°F-10.4°C 25% 5.8 mph NNE9.3 kmh NNE 12.7 mph20.4 kmh 30.25 in1024.4 mb - 0.00 in0.0 mm 0.00 in0.0 mm
04:30 PM 47.4°F8.6°C 15.9°F-8.9°C 28% 6.9 mph N11.1 kmh N 8.1 mph13.0 kmh 30.25 in1024.4 mb - 0.00 in0.0 mm 0.00 in0.0 mm
04:20 PM 47.2°F8.4°C 14.9°F-9.5°C 27% 6.9 mph NNE11.1 kmh NNE 9.2 mph14.8 kmh 30.26 in1024.7 mb - 0.00 in0.0 mm 0.00 in0.0 mm
04:10 PM 47.1°F8.4°C 13.9°F-10.1°C 26% 5.8 mph NNE9.3 kmh NNE 10.4 mph16.7 kmh 30.26 in1024.7 mb - 0.00 in0.0 mm 0.00 in0.0 mm
04:00 PM 46.4°F8.0°C 12.4°F-10.9°C 25% 4.6 mph NE7.4 kmh NE 4.6 mph7.4 kmh 30.26 in1024.7 mb - 0.00 in0.0 mm 0.00 in0.0 mm
03:50 PM 46.7°F8.2°C 14.5°F-9.7°C 27% 9.2 mph N14.8 kmh N 11.5 mph18.5 kmh 30.26 in1024.7 mb - 0.00 in0.0 mm 0.00 in0.0 mm
03:40 PM 47.4°F8.6°C 16.7°F-8.5°C 29% 9.2 mph NNE14.8 kmh NNE 16.1 mph25.9 kmh 30.26 in1024.7 mb - 0.00 in0.0 mm 0.00 in0.0 mm
03:30 PM 46.6°F8.1°C 18.3°F-7.6°C 32% 4.6 mph N7.4 kmh N 9.2 mph14.8 kmh 30.26 in1024.7 mb - 0.00 in0.0 mm 0.00 in0.0 mm
03:20 PM 47.1°F8.4°C 15.6°F-9.1°C 28% 10.4 mph NE16.7 kmh NE 12.7 mph20.4 kmh 30.26 in1024.7 mb - 0.00 in0.0 mm 0.00 in0.0 mm
03:10 PM 45.9°F7.7°C 14.6°F-9.7°C 28% 2.3 mph WNW3.7 kmh WNW 3.5 mph5.6 kmh 30.26 in1024.7 mb - 0.00 in0.0 mm 0.00 in0.0 mm
03:00 PM 46.0°F7.8°C 16.3°F-8.7°C 30% 5.8 mph NE9.3 kmh NE 9.2 mph14.8 kmh 30.27 in1025.1 mb - 0.00 in0.0 mm 0.00 in0.0 mm
02:50 PM 46.3°F7.9°C 18.7°F-7.4°C 33% 10.4 mph NE16.7 kmh NE 13.8 mph22.2 kmh 30.27 in1025.1 mb - 0.00 in0.0 mm 0.00 in0.0 mm
02:40 PM 45.8°F7.7°C 13.7°F-10.2°C 27% 4.6 mph NNW7.4 kmh NNW 4.6 mph7.4 kmh 30.27 in1025.1 mb - 0.00 in0.0 mm 0.00 in0.0 mm
02:30 PM 46.4°F8.0°C 20.2°F-6.6°C 35% 4.6 mph NE7.4 kmh NE 10.4 mph16.7 kmh 30.27 in1025.1 mb - 0.00 in0.0 mm 0.00 in0.0 mm
02:20 PM 45.8°F7.7°C 19.0°F-7.2°C 34% 9.2 mph NE14.8 kmh NE 17.3 mph27.8 kmh 30.28 in1025.4 mb - 0.00 in0.0 mm 0.00 in0.0 mm
02:10 PM 45.2°F7.3°C 15.6°F-9.1°C 30% 9.2 mph NNE14.8 kmh NNE 11.5 mph18.5 kmh 30.28 in1025.4 mb - 0.00 in0.0 mm 0.00 in0.0 mm
02:00 PM 44.9°F7.2°C 16.0°F-8.9°C 31% 8.1 mph N13.0 kmh N 12.7 mph20.4 kmh 30.28 in1025.4 mb - 0.00 in0.0 mm 0.00 in0.0 mm
01:50 PM 44.5°F6.9°C 16.4°F-8.7°C 32% 6.9 mph NE11.1 kmh NE 8.1 mph13.0 kmh 30.28 in1025.4 mb - 0.00 in0.0 mm 0.00 in0.0 mm
01:40 PM 44.0°F6.7°C 17.4°F-8.1°C 34% 9.2 mph NNE14.8 kmh NNE 11.5 mph18.5 kmh 30.29 in1025.7 mb - 0.00 in0.0 mm 0.00 in0.0 mm
01:30 PM 44.3°F6.8°C 17.7°F-7.9°C 34% 8.1 mph N13.0 kmh N 11.5 mph18.5 kmh 30.29 in1025.7 mb - 0.00 in0.0 mm 0.00 in0.0 mm
01:20 PM 43.8°F6.6°C 18.5°F-7.5°C 36% 8.1 mph NE13.0 kmh NE 10.4 mph16.7 kmh 30.29 in1025.7 mb - 0.00 in0.0 mm 0.00 in0.0 mm
01:10 PM 43.1°F6.2°C 17.2°F-8.2°C 35% 5.8 mph N9.3 kmh N 10.4 mph16.7 kmh 30.29 in1025.7 mb - 0.00 in0.0 mm 0.00 in0.0 mm
01:00 PM 43.0°F6.1°C 17.8°F-7.9°C 36% 6.9 mph NE11.1 kmh NE 10.4 mph16.7 kmh 30.30 in1026.1 mb - 0.00 in0.0 mm 0.00 in0.0 mm
12:50 PM 42.1°F5.6°C 15.7°F-9.1°C 34% 8.1 mph NE13.0 kmh NE 13.8 mph22.2 kmh 30.30 in1026.1 mb - 0.00 in0.0 mm 0.00 in0.0 mm
12:40 PM 42.2°F5.7°C 18.4°F-7.6°C 38% 8.1 mph NE13.0 kmh NE 9.2 mph14.8 kmh 30.30 in1026.1 mb - 0.00 in0.0 mm 0.00 in0.0 mm
12:30 PM 42.4°F5.8°C 17.9°F-7.8°C 37% 9.2 mph N14.8 kmh N 11.5 mph18.5 kmh 30.30 in1026.1 mb - 0.00 in0.0 mm 0.00 in0.0 mm
12:20 PM 41.6°F5.3°C 15.9°F-8.9°C 35% 8.1 mph NE13.0 kmh NE 10.4 mph16.7 kmh 30.30 in1026.1 mb - 0.00 in0.0 mm 0.00 in0.0 mm
12:10 PM 41.6°F5.3°C 15.9°F-8.9°C 35% 5.8 mph N9.3 kmh N 10.4 mph16.7 kmh 30.30 in1026.1 mb - 0.00 in0.0 mm 0.00 in0.0 mm
12:00 PM 41.1°F5.1°C 16.1°F-8.8°C 36% 10.4 mph NE16.7 kmh NE 11.5 mph18.5 kmh 30.30 in1026.1 mb - 0.00 in0.0 mm 0.00 in0.0 mm
11:50 AM 41.2°F5.1°C 16.2°F-8.8°C 36% 10.4 mph NE16.7 kmh NE 12.7 mph20.4 kmh 30.30 in1026.1 mb - 0.00 in0.0 mm 0.00 in0.0 mm
11:40 AM 40.8°F4.9°C 17.1°F-8.3°C 38% 10.4 mph NE16.7 kmh NE 17.3 mph27.8 kmh 30.30 in1026.1 mb - 0.00 in0.0 mm 0.00 in0.0 mm
11:30 AM 40.4°F4.7°C 18.0°F-7.8°C 40% 6.9 mph NE11.1 kmh NE 9.2 mph14.8 kmh 30.30 in1026.1 mb - 0.00 in0.0 mm 0.00 in0.0 mm
11:20 AM 40.3°F4.6°C 17.9°F-7.8°C 40% 8.1 mph NNE13.0 kmh NNE 13.8 mph22.2 kmh 30.30 in1026.1 mb - 0.00 in0.0 mm 0.00 in0.0 mm
11:10 AM 39.7°F4.3°C 16.8°F-8.4°C 39% 5.8 mph NNE9.3 kmh NNE 9.2 mph14.8 kmh 30.30 in1026.1 mb - 0.00 in0.0 mm 0.00 in0.0 mm
11:00 AM 39.9°F4.4°C 18.6°F-7.4°C 42% 4.6 mph NE7.4 kmh NE 5.8 mph9.3 kmh 30.29 in1025.7 mb - 0.00 in0.0 mm 0.00 in0.0 mm
10:50 AM 39.4°F4.1°C 16.5°F-8.6°C 39% 10.4 mph NE16.7 kmh NE 13.8 mph22.2 kmh 30.29 in1025.7 mb - 0.00 in0.0 mm 0.00 in0.0 mm
10:40 AM 38.3°F3.5°C 16.0°F-8.9°C 40% 8.1 mph NE13.0 kmh NE 11.5 mph18.5 kmh 30.29 in1025.7 mb - 0.00 in0.0 mm 0.00 in0.0 mm
10:30 AM 38.6°F3.7°C 17.5°F-8.1°C 42% 4.6 mph N7.4 kmh N 11.5 mph18.5 kmh 30.29 in1025.7 mb - 0.00 in0.0 mm 0.00 in0.0 mm
10:20 AM 37.6°F3.1°C 17.1°F-8.3°C 43% 9.2 mph NE14.8 kmh NE 15.0 mph24.1 kmh 30.28 in1025.4 mb - 0.00 in0.0 mm 0.00 in0.0 mm
10:10 AM 37.2°F2.9°C 15.6°F-9.1°C 41% 5.8 mph NNE9.3 kmh NNE 10.4 mph16.7 kmh 30.28 in1025.4 mb - 0.00 in0.0 mm 0.00 in0.0 mm
10:00 AM 36.6°F2.6°C 14.6°F-9.7°C 40% 5.8 mph N9.3 kmh N 8.1 mph13.0 kmh 30.28 in1025.4 mb - 0.00 in0.0 mm 0.00 in0.0 mm
09:50 AM 36.0°F2.2°C 15.6°F-9.1°C 43% 8.1 mph NNE13.0 kmh NNE 10.4 mph16.7 kmh 30.28 in1025.4 mb - 0.00 in0.0 mm 0.00 in0.0 mm
09:40 AM 35.5°F1.9°C 15.7°F-9.1°C 44% 5.8 mph NE9.3 kmh NE 9.2 mph14.8 kmh 30.27 in1025.1 mb - 0.00 in0.0 mm 0.00 in0.0 mm
09:30 AM 35.0°F1.7°C 15.3°F-9.3°C 44% 5.8 mph NNE9.3 kmh NNE 4.6 mph7.4 kmh 30.27 in1025.1 mb - 0.00 in0.0 mm 0.00 in0.0 mm
09:20 AM 35.1°F1.7°C 17.4°F-8.1°C 48% 9.2 mph NNE14.8 kmh NNE 11.5 mph18.5 kmh 30.26 in1024.7 mb - 0.00 in0.0 mm 0.00 in0.0 mm
09:10 AM 33.8°F1.0°C 15.7°F-9.1°C 47% 6.9 mph NNE11.1 kmh NNE 9.2 mph14.8 kmh 30.25 in1024.4 mb - 0.00 in0.0 mm 0.00 in0.0 mm
09:00 AM 33.6°F0.9°C 15.0°F-9.4°C 46% 6.9 mph NNE11.1 kmh NNE 9.2 mph14.8 kmh 30.25 in1024.4 mb - 0.00 in0.0 mm 0.00 in0.0 mm
08:50 AM 33.3°F0.7°C 15.2°F-9.3°C 47% 6.9 mph NNE11.1 kmh NNE 9.2 mph14.8 kmh 30.25 in1024.4 mb - 0.00 in0.0 mm 0.00 in0.0 mm
08:40 AM 32.8°F0.4°C 14.7°F-9.6°C 47% 9.2 mph N14.8 kmh N 16.1 mph25.9 kmh 30.25 in1024.4 mb - 0.00 in0.0 mm 0.00 in0.0 mm
08:30 AM 32.3°F0.2°C 13.8°F-10.1°C 46% 5.8 mph NNE9.3 kmh NNE 11.5 mph18.5 kmh 30.24 in1024.0 mb - 0.00 in0.0 mm 0.00 in0.0 mm
08:20 AM 32.0°F0.0°C 13.0°F-10.6°C 45% 5.8 mph NNW9.3 kmh NNW 8.1 mph13.0 kmh 30.23 in1023.7 mb - 0.00 in0.0 mm 0.00 in0.0 mm
08:10 AM 31.4°F-0.3°C 12.0°F-11.1°C 44% 8.1 mph NE13.0 kmh NE 11.5 mph18.5 kmh 30.23 in1023.7 mb - 0.00 in0.0 mm 0.00 in0.0 mm
08:00 AM 31.0°F-0.6°C 12.6°F-10.8°C 46% 3.5 mph N5.6 kmh N 6.9 mph11.1 kmh 30.23 in1023.7 mb - 0.00 in0.0 mm 0.00 in0.0 mm
07:50 AM 30.7°F-0.7°C 10.8°F-11.8°C 43% 5.8 mph NE9.3 kmh NE 10.4 mph16.7 kmh 30.22 in1023.4 mb - 0.00 in0.0 mm 0.00 in0.0 mm
07:40 AM 29.8°F-1.2°C 11.5°F-11.4°C 46% 4.6 mph NNE7.4 kmh NNE 11.5 mph18.5 kmh 30.22 in1023.4 mb - 0.00 in0.0 mm 0.00 in0.0 mm
07:30 AM 29.6°F-1.3°C 10.3°F-12.1°C 44% 2.3 mph N3.7 kmh N 3.5 mph5.6 kmh 30.22 in1023.4 mb - 0.00 in0.0 mm 0.00 in0.0 mm
07:20 AM 29.5°F-1.4°C 9.2°F-12.7°C 42% 2.3 mph N3.7 kmh N 4.6 mph7.4 kmh 30.21 in1023.0 mb - 0.00 in0.0 mm 0.00 in0.0 mm
07:10 AM 29.5°F-1.4°C 9.7°F-12.4°C 43% 3.5 mph NE5.6 kmh NE 3.5 mph5.6 kmh 30.21 in1023.0 mb - 0.00 in0.0 mm 0.00 in0.0 mm
07:00 AM 29.5°F-1.4°C 9.2°F-12.7°C 42% 6.9 mph N11.1 kmh N 8.1 mph13.0 kmh 30.20 in1022.7 mb - 0.00 in0.0 mm 0.00 in0.0 mm
06:50 AM 29.6°F-1.3°C 10.3°F-12.1°C 44% 3.5 mph N5.6 kmh N 5.8 mph9.3 kmh 30.20 in1022.7 mb - 0.00 in0.0 mm 0.00 in0.0 mm
06:40 AM 29.7°F-1.3°C 9.4°F-12.6°C 42% 6.9 mph N11.1 kmh N 10.4 mph16.7 kmh 30.20 in1022.7 mb - 0.00 in0.0 mm 0.00 in0.0 mm
06:30 AM 29.9°F-1.2°C 9.6°F-12.4°C 42% 4.6 mph N7.4 kmh N 4.6 mph7.4 kmh 30.19 in1022.4 mb - 0.00 in0.0 mm 0.00 in0.0 mm
06:20 AM 30.0°F-1.1°C 9.2°F-12.7°C 41% 4.6 mph N7.4 kmh N 8.1 mph13.0 kmh 30.19 in1022.4 mb - 0.00 in0.0 mm 0.00 in0.0 mm
06:10 AM 30.2°F-1.0°C 9.3°F-12.6°C 41% 2.3 mph NW3.7 kmh NW 3.5 mph5.6 kmh 30.18 in1022.0 mb - 0.00 in0.0 mm 0.00 in0.0 mm
06:00 AM 30.3°F-0.9°C 8.9°F-12.8°C 40% Calm Calm 2.3 mph3.7 kmh 30.18 in1022.0 mb - 0.00 in0.0 mm 0.00 in0.0 mm
05:50 AM 30.5°F-0.8°C 9.6°F-12.4°C 41% 2.3 mph N3.7 kmh N 3.5 mph5.6 kmh 30.17 in1021.7 mb - 0.00 in0.0 mm 0.00 in0.0 mm
05:40 AM 30.6°F-0.8°C 10.2°F-12.1°C 42% 3.5 mph NNE5.6 kmh NNE 5.8 mph9.3 kmh 30.16 in1021.3 mb - 0.00 in0.0 mm 0.00 in0.0 mm
05:30 AM 30.7°F-0.7°C 9.7°F-12.4°C 41% 3.5 mph NNW5.6 kmh NNW 3.5 mph5.6 kmh 30.16 in1021.3 mb - 0.00 in0.0 mm 0.00 in0.0 mm
05:20 AM 31.2°F-0.4°C 10.2°F-12.1°C 41% 5.8 mph NNW9.3 kmh NNW 8.1 mph13.0 kmh 30.16 in1021.3 mb - 0.00 in0.0 mm 0.00 in0.0 mm
05:10 AM 31.4°F-0.3°C 11.5°F-11.4°C 43% 2.3 mph N3.7 kmh N 3.5 mph5.6 kmh 30.16 in1021.3 mb - 0.00 in0.0 mm 0.00 in0.0 mm
05:00 AM 31.6°F-0.2°C 12.2°F-11.0°C 44% 1.2 mph NNE1.9 kmh NNE 1.2 mph1.9 kmh 30.15 in1021.0 mb - 0.00 in0.0 mm 0.00 in0.0 mm
04:50 AM 32.0°F0.0°C 13.0°F-10.6°C 45% 6.9 mph N11.1 kmh N 11.5 mph18.5 kmh 30.15 in1021.0 mb - 0.00 in0.0 mm 0.00 in0.0 mm
04:40 AM 32.0°F0.0°C 13.5°F-10.3°C 46% 4.6 mph N7.4 kmh N 5.8 mph9.3 kmh 30.14 in1020.7 mb - 0.00 in0.0 mm 0.00 in0.0 mm
04:30 AM 31.9°F-0.1°C 15.4°F-9.2°C 50% 4.6 mph NNW7.4 kmh NNW 5.8 mph9.3 kmh 30.14 in1020.7 mb - 0.00 in0.0 mm 0.00 in0.0 mm
04:20 AM 32.6°F0.3°C 15.0°F-9.4°C 48% 4.6 mph N7.4 kmh N 4.6 mph7.4 kmh 30.14 in1020.7 mb - 0.00 in0.0 mm 0.00 in0.0 mm
04:10 AM 33.0°F0.6°C 14.4°F-9.8°C 46% 6.9 mph N11.1 kmh N 10.4 mph16.7 kmh 30.14 in1020.7 mb - 0.00 in0.0 mm 0.00 in0.0 mm
04:00 AM 33.6°F0.9°C 14.0°F-10.0°C 44% 6.9 mph NNE11.1 kmh NNE 11.5 mph18.5 kmh 30.13 in1020.3 mb - 0.00 in0.0 mm 0.00 in0.0 mm
03:50 AM 33.9°F1.1°C 14.3°F-9.8°C 44% 9.2 mph N14.8 kmh N 11.5 mph18.5 kmh 30.12 in1020.0 mb - 0.00 in0.0 mm 0.00 in0.0 mm
03:40 AM 34.4°F1.3°C 14.7°F-9.6°C 44% 6.9 mph N11.1 kmh N 11.5 mph18.5 kmh 30.12 in1020.0 mb - 0.00 in0.0 mm 0.00 in0.0 mm
03:30 AM 34.6°F1.4°C 16.4°F-8.7°C 47% 4.6 mph NNE7.4 kmh NNE 11.5 mph18.5 kmh 30.12 in1020.0 mb - 0.00 in0.0 mm 0.00 in0.0 mm
03:20 AM 34.8°F1.6°C 15.6°F-9.1°C 45% 8.1 mph N13.0 kmh N 10.4 mph16.7 kmh 30.12 in1020.0 mb - 0.00 in0.0 mm 0.00 in0.0 mm
03:10 AM 35.1°F1.7°C 16.4°F-8.7°C 46% 5.8 mph N9.3 kmh N 8.1 mph13.0 kmh 30.12 in1020.0 mb - 0.00 in0.0 mm 0.00 in0.0 mm
03:00 AM 35.6°F2.0°C 16.8°F-8.4°C 46% 5.8 mph NNE9.3 kmh NNE 9.2 mph14.8 kmh 30.12 in1020.0 mb - 0.00 in0.0 mm 0.00 in0.0 mm
02:50 AM 36.1°F2.3°C 16.8°F-8.4°C 45% 8.1 mph NNE13.0 kmh NNE 10.4 mph16.7 kmh 30.12 in1020.0 mb - 0.00 in0.0 mm 0.00 in0.0 mm
02:40 AM 36.8°F2.7°C 17.4°F-8.1°C 45% 9.2 mph NE14.8 kmh NE 11.5 mph18.5 kmh 30.11 in1019.6 mb - 0.00 in0.0 mm 0.00 in0.0 mm
02:30 AM 37.1°F2.8°C 18.7°F-7.4°C 47% 9.2 mph N14.8 kmh N 11.5 mph18.5 kmh 30.11 in1019.6 mb - 0.00 in0.0 mm 0.00 in0.0 mm
02:20 AM 37.5°F3.1°C 20.1°F-6.6°C 49% 8.1 mph NE13.0 kmh NE 13.8 mph22.2 kmh 30.11 in1019.6 mb - 0.00 in0.0 mm 0.00 in0.0 mm
02:10 AM 38.0°F3.3°C 20.5°F-6.4°C 49% 6.9 mph NNE11.1 kmh NNE 13.8 mph22.2 kmh 30.11 in1019.6 mb - 0.00 in0.0 mm 0.00 in0.0 mm
02:00 AM 38.0°F3.3°C 21.9°F-5.6°C 52% 5.8 mph NNE9.3 kmh NNE 11.5 mph18.5 kmh 30.11 in1019.6 mb - 0.00 in0.0 mm 0.00 in0.0 mm
01:50 AM 38.3°F3.5°C 21.7°F-5.7°C 51% 10.4 mph NNE16.7 kmh NNE 11.5 mph18.5 kmh 30.11 in1019.6 mb - 0.00 in0.0 mm 0.00 in0.0 mm
01:40 AM 38.4°F3.6°C 23.2°F-4.9°C 54% 9.2 mph N14.8 kmh N 11.5 mph18.5 kmh 30.11 in1019.6 mb - 0.00 in0.0 mm 0.00 in0.0 mm
01:30 AM 38.3°F3.5°C 26.4°F-3.1°C 62% 6.9 mph NNE11.1 kmh NNE 11.5 mph18.5 kmh 30.11 in1019.6 mb - 0.00 in0.0 mm 0.00 in0.0 mm
01:20 AM 38.0°F3.3°C 31.7°F-0.2°C 78% 5.8 mph NNE9.3 kmh NNE 10.4 mph16.7 kmh 30.10 in1019.3 mb - 0.00 in0.0 mm 0.00 in0.0 mm
01:10 AM 37.8°F3.2°C 34.6°F1.4°C 88% 4.6 mph N7.4 kmh N 4.6 mph7.4 kmh 30.10 in1019.3 mb - 0.00 in0.0 mm 0.00 in0.0 mm
01:00 AM 37.8°F3.2°C 35.1°F1.7°C 90% 3.5 mph NW5.6 kmh NW 4.6 mph7.4 kmh 30.10 in1019.3 mb - 0.00 in0.0 mm 0.00 in0.0 mm
12:50 AM 37.7°F3.2°C 35.6°F2.0°C 92% 3.5 mph NW5.6 kmh NW 3.5 mph5.6 kmh 30.09 in1019.0 mb - 0.00 in0.0 mm 0.00 in0.0 mm
12:40 AM 37.7°F3.2°C 35.9°F2.2°C 93% 2.3 mph NNW3.7 kmh NNW 3.5 mph5.6 kmh 30.09 in1019.0 mb - 0.00 in0.0 mm 0.00 in0.0 mm
12:30 AM 37.8°F3.2°C 36.0°F2.2°C 93% 3.5 mph NW5.6 kmh NW 3.5 mph5.6 kmh 30.09 in1019.0 mb - 0.00 in0.0 mm 0.00 in0.0 mm
12:20 AM 37.8°F3.2°C 36.2°F2.3°C 94% 1.2 mph NW1.9 kmh NW 3.5 mph5.6 kmh 30.09 in1019.0 mb - 0.00 in0.0 mm 0.00 in0.0 mm
12:10 AM 37.8°F3.2°C 36.2°F2.3°C 94% 2.3 mph NW3.7 kmh NW 3.5 mph5.6 kmh 30.09 in1019.0 mb - 0.00 in0.0 mm 0.00 in0.0 mm
12:00 AM 37.7°F3.2°C 36.2°F2.3°C 94% 3.5 mph NW5.6 kmh NW 3.5 mph5.6 kmh 30.09 in1019.0 mb - 0.00 in0.0 mm 0.00 in0.0 mm